Terminal Aerodrome Forecast
Issued by NWS

Home | Current Version | Previous Version | Text Only | Print | Product List | Glossary On
Versions: 1 2 3 4 5 6 7 8 9 10 11 12 13 14 15 16
000
FTUS44 KMAF 191500 AAA
TAFPEQ
TAF AMD
KPEQ 191509Z 1915/2012 02011KT P6SM SKC
     FM191800 01013G19KT P6SM SKC
     FM192100 33008KT P6SM FEW250
     FM200100 07008KT P6SM SCT250=

USA.gov is the U.S. government's official web portal to all federal, state and local government web resources and services.